Time;durP1;ratioP1;P1;durP2;ratioP2;P2;SDS_P1;SDS_P2;PMS_P1;PMS_P2;Temp;Humidity;BMP_temperature;BMP_pressure;BME280_temperature;BME280_humidity;BME280_pressure;Samples;Min_cycle;Max_cycle;Signal;HPM_P1;HPM_P2
2023/07/29 00:00:43;;;;;;;5.78;5.20;;;;;;;;;;5061230;28;20587;-59
2023/07/29 00:03:10;;;;;;;5.30;4.90;;;;;;;;;;5054955;28;20674;-60
2023/07/29 00:05:38;;;;;;;4.47;4.18;;;;;;;;;;5051194;28;20410;-60
2023/07/29 00:08:05;;;;;;;5.32;4.40;;;;;;;;;;5052567;28;20204;-60
2023/07/29 00:10:34;;;;;;;5.05;4.60;;;;;;;;;;5065802;28;20199;-60
2023/07/29 00:13:01;;;;;;;5.75;4.88;;;;;;;;;;5056078;28;20619;-60
2023/07/29 00:15:28;;;;;;;5.65;5.13;;;;;;;;;;5051036;28;20227;-60
2023/07/29 00:17:55;;;;;;;5.72;5.30;;;;;;;;;;5052418;28;20231;-60
2023/07/29 00:20:22;;;;;;;5.82;5.30;;;;;;;;;;5064855;28;20212;-60
2023/07/29 00:22:52;;;;;;;5.88;5.47;;;;;;;;;;5051151;28;20589;-60
2023/07/29 00:25:19;;;;;;;5.53;5.05;;;;;;;;;;5066570;28;20223;-60
2023/07/29 00:27:48;;;;;;;6.07;5.47;;;;;;;;;;5050872;28;20713;-60
2023/07/29 00:30:15;;;;;;;5.50;5.10;;;;;;;;;;5054862;28;20208;-61
2023/07/29 00:32:42;;;;;;;5.35;5.00;;;;;;;;;;5050856;28;20311;-60
2023/07/29 00:35:09;;;;;;;5.63;5.22;;;;;;;;;;5056990;28;20227;-60
2023/07/29 00:37:37;;;;;;;5.97;5.47;;;;;;;;;;5055187;28;20211;-61
2023/07/29 00:40:04;;;;;;;5.68;5.28;;;;;;;;;;5052581;28;20196;-60
2023/07/29 00:42:32;;;;;;;5.85;5.30;;;;;;;;;;5050166;28;20219;-60
2023/07/29 00:45:00;;;;;;;6.50;5.50;;;;;;;;;;5051306;28;20231;-60
2023/07/29 00:47:27;;;;;;;7.00;4.57;;;;;;;;;;5050677;28;20208;-60
2023/07/29 00:49:54;;;;;;;5.15;4.65;;;;;;;;;;5051368;28;20740;-60
2023/07/29 00:52:21;;;;;;;5.10;4.72;;;;;;;;;;5061565;28;20207;-60
2023/07/29 00:54:48;;;;;;;4.60;4.20;;;;;;;;;;5062302;28;20233;-61
2023/07/29 00:57:17;;;;;;;4.65;4.35;;;;;;;;;;5070312;28;20218;-60
2023/07/29 00:59:44;;;;;;;4.63;4.15;;;;;;;;;;5063674;28;20212;-60
2023/07/29 01:02:12;;;;;;;7.10;4.60;;;;;;;;;;5056089;28;20231;-60
2023/07/29 01:04:39;;;;;;;4.60;4.15;;;;;;;;;;5048645;28;20210;-60
2023/07/29 01:07:13;;;;;;;4.35;4.05;;;;;;;;;;5056935;28;20214;-60
2023/07/29 01:09:45;;;;;;;4.72;3.65;;;;;;;;;;5060362;28;20215;-61
2023/07/29 01:12:14;;;;;;;3.90;3.65;;;;;;;;;;5050672;28;20764;-60
2023/07/29 01:14:46;;;;;;;4.35;3.78;;;;;;;;;;5049868;28;20215;-60
2023/07/29 01:17:15;;;;;;;4.20;3.83;;;;;;;;;;5058210;28;20235;-61
2023/07/29 01:19:44;;;;;;;4.22;4.03;;;;;;;;;;5059084;28;20202;-60
2023/07/29 01:22:12;;;;;;;6.78;3.60;;;;;;;;;;5060888;28;20215;-60
2023/07/29 01:24:40;;;;;;;3.30;2.80;;;;;;;;;;5069585;28;20230;-61
2023/07/29 01:27:08;;;;;;;3.20;2.97;;;;;;;;;;5069405;28;20207;-60
2023/07/29 01:29:35;;;;;;;3.85;3.22;;;;;;;;;;5064177;28;20203;-60
2023/07/29 01:32:05;;;;;;;3.05;2.95;;;;;;;;;;5056298;28;20203;-60
2023/07/29 01:34:36;;;;;;;3.42;3.13;;;;;;;;;;5052157;28;20676;-60
2023/07/29 01:37:06;;;;;;;3.17;2.60;;;;;;;;;;5056371;28;20227;-60
2023/07/29 01:39:34;;;;;;;8.57;2.53;;;;;;;;;;5057756;28;20970;-60
2023/07/29 01:42:03;;;;;;;2.42;2.35;;;;;;;;;;5064538;28;20210;-59
2023/07/29 01:44:30;;;;;;;3.30;2.72;;;;;;;;;;5066840;28;20701;-59
2023/07/29 01:46:57;;;;;;;2.60;2.47;;;;;;;;;;5068910;28;20713;-59
2023/07/29 01:49:24;;;;;;;2.17;2.08;;;;;;;;;;5068495;28;20584;-59
2023/07/29 01:51:51;;;;;;;2.17;2.08;;;;;;;;;;5067577;28;20207;-58
2023/07/29 01:54:18;;;;;;;2.63;2.38;;;;;;;;;;5065100;28;20215;-58
2023/07/29 01:56:45;;;;;;;2.50;2.30;;;;;;;;;;5049407;28;20228;-59
2023/07/29 01:59:15;;;;;;;2.33;2.10;;;;;;;;;;5050458;28;20658;-59
2023/07/29 02:01:43;;;;;;;3.83;1.75;;;;;;;;;;5054010;28;20261;-59
2023/07/29 02:04:10;;;;;;;1.50;1.50;;;;;;;;;;5066661;28;20284;-59
2023/07/29 02:06:37;;;;;;;2.25;2.15;;;;;;;;;;5048470;28;20218;-59
2023/07/29 02:09:05;;;;;;;2.17;2.08;;;;;;;;;;5059072;28;20561;-59
2023/07/29 02:11:32;;;;;;;2.10;2.10;;;;;;;;;;5063950;28;20239;-59
2023/07/29 02:13:59;;;;;;;2.75;2.25;;;;;;;;;;5058513;28;20211;-60
2023/07/29 02:16:27;;;;;;;1.90;1.90;;;;;;;;;;5049206;28;20234;-59
2023/07/29 02:18:54;;;;;;;2.25;2.20;;;;;;;;;;5051337;28;20277;-59
2023/07/29 02:21:21;;;;;;;2.65;2.45;;;;;;;;;;5068189;28;20218;-59
2023/07/29 02:23:48;;;;;;;1.92;1.83;;;;;;;;;;5052676;28;20214;-58
2023/07/29 02:26:15;;;;;;;3.53;2.20;;;;;;;;;;5068773;28;20225;-58
2023/07/29 02:28:42;;;;;;;2.50;2.30;;;;;;;;;;5068952;28;20210;-58
2023/07/29 02:31:15;;;;;;;1.77;1.67;;;;;;;;;;5068728;28;20207;-58
2023/07/29 02:33:44;;;;;;;2.50;2.30;;;;;;;;;;5066368;28;20223;-59
2023/07/29 02:36:12;;;;;;;2.33;2.33;;;;;;;;;;5066958;28;20627;-59
2023/07/29 02:38:40;;;;;;;2.85;2.65;;;;;;;;;;5068827;28;20210;-59
2023/07/29 02:41:08;;;;;;;5.90;3.08;;;;;;;;;;5068490;28;20298;-59
2023/07/29 02:43:35;;;;;;;6.70;3.03;;;;;;;;;;5068587;28;20280;-59
2023/07/29 02:46:02;;;;;;;2.45;2.25;;;;;;;;;;5066605;28;20206;-59
2023/07/29 02:48:30;;;;;;;2.50;2.40;;;;;;;;;;5068794;28;20210;-58
2023/07/29 02:50:58;;;;;;;6.55;3.28;;;;;;;;;;5068462;28;20199;-59
2023/07/29 02:53:26;;;;;;;2.80;2.60;;;;;;;;;;5068916;28;20211;-59
2023/07/29 02:55:54;;;;;;;4.05;3.85;;;;;;;;;;5055810;28;20231;-59
2023/07/29 02:58:21;;;;;;;3.95;3.65;;;;;;;;;;5067704;28;20596;-59
2023/07/29 03:00:48;;;;;;;3.10;3.00;;;;;;;;;;5060834;28;20218;-59
2023/07/29 03:03:15;;;;;;;3.60;3.40;;;;;;;;;;5065332;28;20207;-59
2023/07/29 03:05:43;;;;;;;4.68;4.28;;;;;;;;;;5069043;28;20199;-58
2023/07/29 03:08:12;;;;;;;4.97;4.68;;;;;;;;;;5060972;28;20668;-58
2023/07/29 03:10:39;;;;;;;4.50;4.20;;;;;;;;;;5069499;28;20310;-59
2023/07/29 03:13:06;;;;;;;4.90;4.60;;;;;;;;;;5070675;28;20210;-59
2023/07/29 03:15:34;;;;;;;4.30;4.03;;;;;;;;;;5071148;28;20234;-59
2023/07/29 03:18:20;;;;;;;5.53;4.93;;;;;;;;;;5070493;28;20231;-59
2023/07/29 03:20:47;;;;;;;4.93;4.63;;;;;;;;;;5066484;28;20207;-59
2023/07/29 03:23:15;;;;;;;4.75;4.45;;;;;;;;;;5063256;28;20210;-58
2023/07/29 03:25:44;;;;;;;5.25;4.28;;;;;;;;;;5057118;28;20199;-59
2023/07/29 03:28:11;;;;;;;5.05;3.83;;;;;;;;;;5064439;28;20200;-59
2023/07/29 03:30:38;;;;;;;4.55;4.25;;;;;;;;;;5051847;28;20670;-59
2023/07/29 03:33:06;;;;;;;4.45;4.05;;;;;;;;;;5052292;28;20804;-59
2023/07/29 03:35:33;;;;;;;4.10;3.80;;;;;;;;;;5051755;28;20208;-58
2023/07/29 03:38:00;;;;;;;4.18;3.88;;;;;;;;;;5060699;28;20207;-59
2023/07/29 03:40:27;;;;;;;3.38;3.28;;;;;;;;;;5071467;28;20206;-58
2023/07/29 03:42:54;;;;;;;5.03;3.60;;;;;;;;;;5071425;28;20227;-58
2023/07/29 03:45:21;;;;;;;3.63;3.40;;;;;;;;;;5070778;28;20578;-59
2023/07/29 03:47:48;;;;;;;3.97;3.50;;;;;;;;;;5060561;28;20207;-59
2023/07/29 03:50:15;;;;;;;4.18;3.65;;;;;;;;;;5052657;28;20219;-59
2023/07/29 03:52:42;;;;;;;3.42;3.28;;;;;;;;;;5051530;28;20234;-58
2023/07/29 03:55:09;;;;;;;4.00;3.55;;;;;;;;;;5059890;28;20669;-59
2023/07/29 03:57:38;;;;;;;3.65;3.45;;;;;;;;;;5061983;28;20234;-58
2023/07/29 04:00:05;;;;;;;4.95;3.40;;;;;;;;;;5069065;28;20585;-59
2023/07/29 04:02:32;;;;;;;3.90;3.53;;;;;;;;;;5057882;28;20207;-58
2023/07/29 04:04:59;;;;;;;3.40;3.10;;;;;;;;;;5051172;28;20214;-59
2023/07/29 04:07:26;;;;;;;4.45;3.42;;;;;;;;;;5051482;28;20717;-58
2023/07/29 04:09:53;;;;;;;3.45;3.25;;;;;;;;;;5052558;28;20208;-58
2023/07/29 04:12:21;;;;;;;3.40;3.20;;;;;;;;;;5055026;28;20215;-59
2023/07/29 04:14:49;;;;;;;3.13;2.92;;;;;;;;;;5065777;28;20264;-58
2023/07/29 04:17:16;;;;;;;2.97;2.78;;;;;;;;;;5066444;28;20623;-58
2023/07/29 04:19:43;;;;;;;2.80;2.70;;;;;;;;;;5070727;28;20207;-59
2023/07/29 04:22:11;;;;;;;3.20;3.00;;;;;;;;;;5069667;28;20700;-58
2023/07/29 04:24:38;;;;;;;2.83;2.60;;;;;;;;;;5066108;28;20205;-59
2023/07/29 04:27:05;;;;;;;2.58;2.47;;;;;;;;;;5051556;28;20211;-59
2023/07/29 04:29:32;;;;;;;2.40;2.30;;;;;;;;;;5063005;28;20199;-59
2023/07/29 04:32:01;;;;;;;2.72;2.47;;;;;;;;;;5069007;28;20203;-59
2023/07/29 04:34:28;;;;;;;5.78;3.90;;;;;;;;;;5070527;28;20273;-59
2023/07/29 04:36:55;;;;;;;2.78;2.55;;;;;;;;;;5068859;28;20764;-58
2023/07/29 04:39:22;;;;;;;2.30;2.20;;;;;;;;;;5061351;28;20206;-59
2023/07/29 04:41:49;;;;;;;2.47;2.03;;;;;;;;;;5051883;28;20199;-59
2023/07/29 04:44:16;;;;;;;2.40;2.30;;;;;;;;;;5050517;28;20246;-59
2023/07/29 04:46:43;;;;;;;2.10;2.03;;;;;;;;;;5050614;28;20685;-59
2023/07/29 04:49:12;;;;;;;2.33;2.22;;;;;;;;;;5069022;28;20206;-59
2023/07/29 04:51:39;;;;;;;2.92;2.33;;;;;;;;;;5059651;28;20226;-59
2023/07/29 04:54:06;;;;;;;2.80;2.30;;;;;;;;;;5069004;28;20712;-58
2023/07/29 04:56:33;;;;;;;4.18;2.50;;;;;;;;;;5062671;28;20448;-58
2023/07/29 04:59:00;;;;;;;2.40;2.20;;;;;;;;;;5050309;28;20214;-58
2023/07/29 05:01:27;;;;;;;2.78;2.67;;;;;;;;;;5064084;28;20210;-58
2023/07/29 05:03:54;;;;;;;2.60;2.40;;;;;;;;;;5070084;28;20950;-58
2023/07/29 05:06:22;;;;;;;4.68;2.63;;;;;;;;;;5068447;28;20543;-58
2023/07/29 05:08:49;;;;;;;4.22;2.55;;;;;;;;;;5069436;28;21009;-59
2023/07/29 05:11:16;;;;;;;2.65;2.55;;;;;;;;;;5054129;28;20207;-59
2023/07/29 05:13:44;;;;;;;2.72;2.63;;;;;;;;;;5056540;28;20207;-58
2023/07/29 05:16:11;;;;;;;2.58;2.38;;;;;;;;;;5065370;28;20219;-59
2023/07/29 05:18:38;;;;;;;3.15;2.60;;;;;;;;;;5069113;28;20872;-59
2023/07/29 05:21:05;;;;;;;2.80;2.60;;;;;;;;;;5068784;28;20207;-59
2023/07/29 05:23:33;;;;;;;2.60;2.42;;;;;;;;;;5055034;28;20199;-58
2023/07/29 05:26:00;;;;;;;3.33;2.42;;;;;;;;;;5057186;28;20439;-59
2023/07/29 05:28:27;;;;;;;4.40;2.33;;;;;;;;;;5049644;28;20678;-58
2023/07/29 05:30:54;;;;;;;2.65;2.47;;;;;;;;;;5054861;28;20203;-60
2023/07/29 05:33:21;;;;;;;3.55;2.45;;;;;;;;;;5049560;28;20212;-58
2023/07/29 05:35:48;;;;;;;2.55;2.45;;;;;;;;;;5049534;28;20208;-59
2023/07/29 05:38:15;;;;;;;2.50;2.40;;;;;;;;;;5052426;28;20277;-59
2023/07/29 05:40:44;;;;;;;2.67;2.58;;;;;;;;;;5067688;28;20199;-59
2023/07/29 05:43:11;;;;;;;3.13;2.22;;;;;;;;;;5068846;28;20231;-59
2023/07/29 05:45:38;;;;;;;2.90;2.75;;;;;;;;;;5068890;28;20233;-59
2023/07/29 05:48:05;;;;;;;2.60;2.47;;;;;;;;;;5053852;28;20200;-59
2023/07/29 05:50:32;;;;;;;4.15;1.92;;;;;;;;;;5060432;28;20208;-59
2023/07/29 05:52:59;;;;;;;2.22;2.05;;;;;;;;;;5059490;28;20473;-59
2023/07/29 05:55:26;;;;;;;3.53;2.20;;;;;;;;;;5060970;28;20256;-60
2023/07/29 05:57:55;;;;;;;2.58;2.40;;;;;;;;;;5057426;28;20227;-59
2023/07/29 06:00:22;;;;;;;2.05;2.05;;;;;;;;;;5055184;28;20199;-59
2023/07/29 06:02:49;;;;;;;2.15;1.95;;;;;;;;;;5059766;28;20524;-60
2023/07/29 06:05:16;;;;;;;2.28;2.00;;;;;;;;;;5053651;28;20195;-59
2023/07/29 06:07:44;;;;;;;2.00;1.90;;;;;;;;;;5049224;28;20208;-59
2023/07/29 06:10:12;;;;;;;1.98;1.88;;;;;;;;;;5048991;28;20207;-62
2023/07/29 06:12:39;;;;;;;2.10;2.10;;;;;;;;;;5062229;28;20214;-60
2023/07/29 06:15:08;;;;;;;1.92;1.92;;;;;;;;;;5068194;28;20207;-61
2023/07/29 06:17:35;;;;;;;2.30;2.20;;;;;;;;;;5064542;28;20864;-61
2023/07/29 06:20:03;;;;;;;2.80;1.80;;;;;;;;;;5052174;28;20230;-61
2023/07/29 06:22:30;;;;;;;1.60;1.55;;;;;;;;;;5049196;28;20227;-61
2023/07/29 06:24:57;;;;;;;1.85;1.75;;;;;;;;;;5053693;28;20221;-61
2023/07/29 06:27:25;;;;;;;1.98;1.92;;;;;;;;;;5068829;28;20586;-61
2023/07/29 06:29:52;;;;;;;2.20;2.10;;;;;;;;;;5062549;28;20207;-61
2023/07/29 06:32:20;;;;;;;2.33;2.13;;;;;;;;;;5052651;28;20207;-61
2023/07/29 06:34:47;;;;;;;2.00;1.80;;;;;;;;;;5068219;28;20215;-61
2023/07/29 06:37:14;;;;;;;3.90;1.92;;;;;;;;;;5068963;28;20234;-61
2023/07/29 06:39:41;;;;;;;2.17;2.00;;;;;;;;;;5068733;28;20210;-61
2023/07/29 06:42:08;;;;;;;1.85;1.75;;;;;;;;;;5059487;28;20211;-61
2023/07/29 06:44:35;;;;;;;3.90;2.60;;;;;;;;;;5052494;28;20220;-61
2023/07/29 06:47:03;;;;;;;1.90;1.90;;;;;;;;;;5068609;28;20669;-61
2023/07/29 06:49:31;;;;;;;2.00;1.90;;;;;;;;;;5061174;28;20550;-61
2023/07/29 06:51:58;;;;;;;2.22;2.22;;;;;;;;;;5061598;28;20207;-61
2023/07/29 06:54:26;;;;;;;1.63;1.63;;;;;;;;;;5057440;28;20684;-60
2023/07/29 06:56:53;;;;;;;1.90;1.80;;;;;;;;;;5060587;28;20262;-60
2023/07/29 06:59:20;;;;;;;2.30;2.10;;;;;;;;;;5061430;28;20222;-60
2023/07/29 07:01:47;;;;;;;2.45;2.25;;;;;;;;;;5061196;28;20203;-60
2023/07/29 07:04:14;;;;;;;2.63;2.42;;;;;;;;;;5057830;28;20788;-60
2023/07/29 07:06:43;;;;;;;2.13;2.03;;;;;;;;;;5059687;28;20211;-60
2023/07/29 07:09:10;;;;;;;2.50;2.40;;;;;;;;;;5067710;28;20206;-60
2023/07/29 07:11:37;;;;;;;2.78;2.60;;;;;;;;;;5067500;28;20226;-60
2023/07/29 07:14:04;;;;;;;2.53;2.33;;;;;;;;;;5053192;28;20207;-60
2023/07/29 07:16:31;;;;;;;2.67;2.53;;;;;;;;;;5062212;28;20214;-60
2023/07/29 07:18:58;;;;;;;2.35;2.10;;;;;;;;;;5053371;28;20234;-60
2023/07/29 07:21:25;;;;;;;1.85;1.85;;;;;;;;;;5071695;28;20195;-60
2023/07/29 07:23:54;;;;;;;2.90;2.25;;;;;;;;;;5067555;28;20218;-60
2023/07/29 07:26:21;;;;;;;2.10;2.00;;;;;;;;;;5061123;28;20198;-60
2023/07/29 07:28:48;;;;;;;2.47;2.38;;;;;;;;;;5069654;28;20213;-60
2023/07/29 07:31:16;;;;;;;2.95;2.75;;;;;;;;;;5068517;28;20195;-60
2023/07/29 07:33:43;;;;;;;2.70;2.60;;;;;;;;;;5052878;28;20208;-59
2023/07/29 07:36:10;;;;;;;2.30;2.20;;;;;;;;;;5055458;28;20203;-61
2023/07/29 07:38:37;;;;;;;2.88;2.60;;;;;;;;;;5062454;28;20219;-60
2023/07/29 07:41:05;;;;;;;2.42;2.30;;;;;;;;;;5068767;28;20207;-60
2023/07/29 07:43:32;;;;;;;2.70;2.60;;;;;;;;;;5059388;28;20225;-69
2023/07/29 07:45:59;;;;;;;2.28;2.25;;;;;;;;;;5054590;28;20212;-61
2023/07/29 07:48:27;;;;;;;5.07;2.30;;;;;;;;;;5063081;28;20196;-61
2023/07/29 07:50:54;;;;;;;2.10;2.00;;;;;;;;;;5064916;28;20589;-61
2023/07/29 07:53:21;;;;;;;2.20;2.10;;;;;;;;;;5065476;28;20680;-61
2023/07/29 07:55:48;;;;;;;2.15;2.05;;;;;;;;;;5054620;28;20694;-61
2023/07/29 07:58:16;;;;;;;1.92;1.90;;;;;;;;;;5060288;28;20219;-60
2023/07/29 08:00:43;;;;;;;2.00;2.00;;;;;;;;;;5068413;28;20202;-60
2023/07/29 08:03:10;;;;;;;1.70;1.70;;;;;;;;;;5061773;28;20212;-60
2023/07/29 08:05:37;;;;;;;2.10;2.08;;;;;;;;;;5061199;28;20548;-59
2023/07/29 08:08:04;;;;;;;1.92;1.80;;;;;;;;;;5068809;28;20210;-60
2023/07/29 08:10:31;;;;;;;3.28;1.88;;;;;;;;;;5069099;28;20690;-60
2023/07/29 08:12:59;;;;;;;1.50;1.45;;;;;;;;;;5071040;28;20219;-59
2023/07/29 08:15:27;;;;;;;1.00;1.00;;;;;;;;;;5052812;28;20218;-60
2023/07/29 08:17:54;;;;;;;1.10;1.10;;;;;;;;;;5068777;28;20241;-60
2023/07/29 08:20:21;;;;;;;0.70;0.70;;;;;;;;;;5062026;28;20584;-60
2023/07/29 08:22:48;;;;;;;0.82;0.80;;;;;;;;;;5062859;28;20210;-60
2023/07/29 08:25:15;;;;;;;2.05;0.55;;;;;;;;;;5052087;28;20203;-61
2023/07/29 08:27:42;;;;;;;1.15;0.43;;;;;;;;;;5059287;28;20680;-60
2023/07/29 08:30:10;;;;;;;0.40;0.40;;;;;;;;;;5053945;28;20211;-60
2023/07/29 08:32:38;;;;;;;0.40;0.40;;;;;;;;;;5061905;28;20483;-59
2023/07/29 08:35:05;;;;;;;0.50;0.50;;;;;;;;;;5061876;28;20204;-59
2023/07/29 08:37:33;;;;;;;1.05;0.50;;;;;;;;;;5058740;28;20219;-60
2023/07/29 08:40:00;;;;;;;0.50;0.50;;;;;;;;;;5069763;28;20234;-59
2023/07/29 08:42:30;;;;;;;0.40;0.40;;;;;;;;;;5056921;28;20215;-59
2023/07/29 08:44:57;;;;;;;0.40;0.40;;;;;;;;;;5064198;28;20211;-60
2023/07/29 08:47:24;;;;;;;1.67;0.52;;;;;;;;;;5063026;28;20195;-60
2023/07/29 08:49:54;;;;;;;0.50;0.50;;;;;;;;;;5063840;28;20210;-62
2023/07/29 08:52:21;;;;;;;0.40;0.40;;;;;;;;;;5068136;28;20199;-61
2023/07/29 08:54:48;;;;;;;0.50;0.50;;;;;;;;;;5070099;28;20207;-60
2023/07/29 08:57:16;;;;;;;0.47;0.47;;;;;;;;;;5058113;28;20208;-60
2023/07/29 08:59:43;;;;;;;0.40;0.40;;;;;;;;;;5062510;28;20207;-60
2023/07/29 09:02:10;;;;;;;0.30;0.30;;;;;;;;;;5050650;28;20265;-60
2023/07/29 09:04:37;;;;;;;1.17;0.40;;;;;;;;;;5059369;28;20207;-60
2023/07/29 09:07:07;;;;;;;0.68;0.68;;;;;;;;;;5068881;28;20305;-60
2023/07/29 09:09:34;;;;;;;0.40;0.40;;;;;;;;;;5063115;28;20295;-60
2023/07/29 09:12:01;;;;;;;0.50;0.50;;;;;;;;;;5052554;28;20207;-60
2023/07/29 09:14:28;;;;;;;0.40;0.40;;;;;;;;;;5068916;28;20222;-59
2023/07/29 09:16:55;;;;;;;0.40;0.40;;;;;;;;;;5067760;28;20210;-58
2023/07/29 09:19:23;;;;;;;0.57;0.57;;;;;;;;;;5067499;28;20235;-61
2023/07/29 09:21:51;;;;;;;0.60;0.60;;;;;;;;;;5069427;28;20321;-60
2023/07/29 09:24:19;;;;;;;0.50;0.50;;;;;;;;;;5061688;28;20210;-60
2023/07/29 09:26:50;;;;;;;6.47;0.60;;;;;;;;;;5050287;28;20211;-60
2023/07/29 09:29:17;;;;;;;1.10;0.40;;;;;;;;;;5058258;28;20740;-60
2023/07/29 09:31:44;;;;;;;1.38;0.80;;;;;;;;;;5051452;28;20215;-60
2023/07/29 09:34:16;;;;;;;4.40;0.43;;;;;;;;;;5054816;28;20202;-59
2023/07/29 09:36:45;;;;;;;1.85;0.50;;;;;;;;;;5061793;28;20693;-60
2023/07/29 09:39:13;;;;;;;0.70;0.70;;;;;;;;;;5055564;28;20342;-59
2023/07/29 09:41:41;;;;;;;2.83;0.50;;;;;;;;;;5066650;28;20245;-60
2023/07/29 09:44:08;;;;;;;0.60;0.60;;;;;;;;;;5058852;28;20265;-60
2023/07/29 09:46:36;;;;;;;0.55;0.55;;;;;;;;;;5059927;28;20204;-59
2023/07/29 09:49:04;;;;;;;3.00;0.68;;;;;;;;;;5047983;28;20218;-59
2023/07/29 09:51:31;;;;;;;1.10;0.47;;;;;;;;;;5059002;28;20576;-59
2023/07/29 09:53:59;;;;;;;0.60;0.60;;;;;;;;;;5055017;28;20210;-59
2023/07/29 09:56:27;;;;;;;0.65;0.63;;;;;;;;;;5064758;28;20207;-59
2023/07/29 09:58:56;;;;;;;0.50;0.50;;;;;;;;;;5069215;28;20227;-60
2023/07/29 10:01:24;;;;;;;0.80;0.80;;;;;;;;;;5051586;28;20214;-60
2023/07/29 10:03:51;;;;;;;0.50;0.50;;;;;;;;;;5053799;28;20215;-60
2023/07/29 10:06:19;;;;;;;0.60;0.60;;;;;;;;;;5049655;28;20207;-60
2023/07/29 10:08:49;;;;;;;0.55;0.55;;;;;;;;;;5068379;28;20196;-59
2023/07/29 10:11:20;;;;;;;3.15;0.55;;;;;;;;;;5062269;28;20203;-60
2023/07/29 10:13:47;;;;;;;0.60;0.60;;;;;;;;;;5059716;28;20207;-59
2023/07/29 10:16:16;;;;;;;0.50;0.50;;;;;;;;;;5072164;28;20239;-60
2023/07/29 10:18:45;;;;;;;0.40;0.40;;;;;;;;;;5072316;28;20239;-62
2023/07/29 10:21:13;;;;;;;0.55;0.55;;;;;;;;;;5073325;28;20309;-60
2023/07/29 10:23:44;;;;;;;0.70;0.70;;;;;;;;;;5072318;28;20206;-60
2023/07/29 10:26:12;;;;;;;0.80;0.80;;;;;;;;;;5065958;28;20452;-60
2023/07/29 10:28:45;;;;;;;0.50;0.50;;;;;;;;;;5065738;28;20290;-60
2023/07/29 10:31:12;;;;;;;0.57;0.57;;;;;;;;;;5061956;28;20264;-61
2023/07/29 10:33:41;;;;;;;0.60;0.60;;;;;;;;;;5054113;28;20318;-61
2023/07/29 10:36:08;;;;;;;0.60;0.60;;;;;;;;;;5070028;28;20206;-61
2023/07/29 10:38:35;;;;;;;0.60;0.60;;;;;;;;;;5056978;28;20230;-59
2023/07/29 10:41:02;;;;;;;2.78;0.52;;;;;;;;;;5053494;28;20239;-64
2023/07/29 10:43:33;;;;;;;0.80;0.80;;;;;;;;;;5056559;28;20222;-58
2023/07/29 10:46:17;;;;;;;0.60;0.60;;;;;;;;;;5058332;28;20208;-60
2023/07/29 10:48:46;;;;;;;1.17;0.50;;;;;;;;;;5068766;28;20203;-60
2023/07/29 10:51:24;;;;;;;0.50;0.50;;;;;;;;;;5070981;28;20729;-61
2023/07/29 10:53:56;;;;;;;0.77;0.77;;;;;;;;;;5056142;28;20211;-59
2023/07/29 10:56:27;;;;;;;0.60;0.60;;;;;;;;;;5051910;28;20231;-59
2023/07/29 10:58:56;;;;;;;0.50;0.50;;;;;;;;;;5067309;28;20238;-60
2023/07/29 11:01:28;;;;;;;0.60;0.60;;;;;;;;;;5066112;28;20200;-60
2023/07/29 11:04:10;;;;;;;1.17;0.85;;;;;;;;;;5068520;28;20203;-61
2023/07/29 11:06:52;;;;;;;0.60;0.60;;;;;;;;;;5055364;28;20199;-59
2023/07/29 11:09:34;;;;;;;0.60;0.60;;;;;;;;;;5056765;28;20202;-59
2023/07/29 11:12:07;;;;;;;3.10;0.68;;;;;;;;;;5052548;28;20203;-60
2023/07/29 11:14:34;;;;;;;0.70;0.70;;;;;;;;;;5056442;28;20223;-59
2023/07/29 11:17:01;;;;;;;0.60;0.60;;;;;;;;;;5070673;28;20250;-59
2023/07/29 11:19:29;;;;;;;0.80;0.80;;;;;;;;;;5065768;28;20686;-61
2023/07/29 11:21:56;;;;;;;0.90;0.90;;;;;;;;;;5051598;28;20219;-60
2023/07/29 11:24:23;;;;;;;0.95;0.95;;;;;;;;;;5071699;28;20210;-60
2023/07/29 11:26:50;;;;;;;0.90;0.90;;;;;;;;;;5071396;28;20211;-60
2023/07/29 11:29:19;;;;;;;0.90;0.90;;;;;;;;;;5071668;28;20207;-60
2023/07/29 11:31:46;;;;;;;0.70;0.70;;;;;;;;;;5071742;28;20211;-60
2023/07/29 11:34:17;;;;;;;0.70;0.70;;;;;;;;;;5055544;28;20232;-60
2023/07/29 11:36:46;;;;;;;0.80;0.80;;;;;;;;;;5056750;28;20203;-60
2023/07/29 11:39:13;;;;;;;0.80;0.80;;;;;;;;;;5066344;28;20639;-60
2023/07/29 11:41:43;;;;;;;0.60;0.60;;;;;;;;;;5056277;28;20204;-60
2023/07/29 11:44:11;;;;;;;0.80;0.80;;;;;;;;;;5065180;28;20234;-59
2023/07/29 11:46:41;;;;;;;1.05;0.80;;;;;;;;;;5068456;28;20548;-59
2023/07/29 11:49:08;;;;;;;0.90;0.90;;;;;;;;;;5066329;28;20222;-58
2023/07/29 11:51:35;;;;;;;0.75;0.60;;;;;;;;;;5066981;28;20337;-58
2023/07/29 11:54:02;;;;;;;0.90;0.90;;;;;;;;;;5059911;28;20751;-59
2023/07/29 11:56:31;;;;;;;0.73;0.73;;;;;;;;;;5058491;28;20211;-58
2023/07/29 11:58:58;;;;;;;1.45;1.45;;;;;;;;;;5056141;28;20227;-58
2023/07/29 12:01:25;;;;;;;1.10;1.10;;;;;;;;;;5052939;28;20214;-58
2023/07/29 12:03:54;;;;;;;1.92;1.30;;;;;;;;;;5060952;28;20210;-60
2023/07/29 12:06:21;;;;;;;1.38;1.38;;;;;;;;;;5063184;28;20298;-61
2023/07/29 12:08:48;;;;;;;1.20;1.20;;;;;;;;;;5061387;28;20195;-59
2023/07/29 12:11:15;;;;;;;0.93;0.93;;;;;;;;;;5050436;28;20203;-60
2023/07/29 12:13:43;;;;;;;1.30;1.30;;;;;;;;;;5048244;28;20212;-60
2023/07/29 12:16:10;;;;;;;0.80;0.80;;;;;;;;;;5060022;28;20218;-60
2023/07/29 12:18:37;;;;;;;0.63;0.63;;;;;;;;;;5064277;28;20235;-59
2023/07/29 12:21:06;;;;;;;1.02;0.80;;;;;;;;;;5056624;28;20216;-59
2023/07/29 12:23:33;;;;;;;0.60;0.60;;;;;;;;;;5058583;28;20680;-60
2023/07/29 12:26:04;;;;;;;0.90;0.90;;;;;;;;;;5062365;28;20218;-60
2023/07/29 12:28:32;;;;;;;1.08;0.80;;;;;;;;;;5062926;28;20677;-59
2023/07/29 12:30:59;;;;;;;0.60;0.60;;;;;;;;;;5052933;28;20242;-60
2023/07/29 12:33:37;;;;;;;0.70;0.70;;;;;;;;;;5067547;28;20238;-60
2023/07/29 12:36:06;;;;;;;0.70;0.70;;;;;;;;;;5062280;28;20203;-57
2023/07/29 12:38:33;;;;;;;0.80;0.80;;;;;;;;;;5049241;28;20222;-58
2023/07/29 12:41:00;;;;;;;5.55;1.00;;;;;;;;;;5068131;28;20215;-58
2023/07/29 12:43:27;;;;;;;1.85;0.90;;;;;;;;;;5068965;28;20633;-58
2023/07/29 12:45:54;;;;;;;3.30;0.63;;;;;;;;;;5067948;28;20210;-58
2023/07/29 12:48:21;;;;;;;0.70;0.70;;;;;;;;;;5067496;28;20219;-58
2023/07/29 12:50:48;;;;;;;0.70;0.70;;;;;;;;;;5069317;28;20629;-59
2023/07/29 12:53:17;;;;;;;0.90;0.90;;;;;;;;;;5061098;28;20591;-59
2023/07/29 12:55:44;;;;;;;0.60;0.60;;;;;;;;;;5052852;28;20329;-59
2023/07/29 12:58:11;;;;;;;0.80;0.80;;;;;;;;;;5064373;28;20218;-59
2023/07/29 13:00:39;;;;;;;0.85;0.85;;;;;;;;;;5068083;28;20566;-59
2023/07/29 13:03:06;;;;;;;0.77;0.77;;;;;;;;;;5062050;28;20203;-59
2023/07/29 13:05:33;;;;;;;0.70;0.70;;;;;;;;;;5048430;28;20243;-59
2023/07/29 13:08:00;;;;;;;0.80;0.80;;;;;;;;;;5053203;28;20207;-59
2023/07/29 13:10:29;;;;;;;1.10;1.10;;;;;;;;;;5063914;28;20195;-59
2023/07/29 13:12:56;;;;;;;0.85;0.85;;;;;;;;;;5054411;28;20204;-59
2023/07/29 13:15:23;;;;;;;0.95;0.95;;;;;;;;;;5051048;28;20649;-59
2023/07/29 13:17:56;;;;;;;0.70;0.70;;;;;;;;;;5059371;28;20241;-60
2023/07/29 13:20:23;;;;;;;1.55;0.98;;;;;;;;;;5049321;28;20662;-59
2023/07/29 13:22:50;;;;;;;0.70;0.70;;;;;;;;;;5051622;28;20203;-60
2023/07/29 13:25:17;;;;;;;0.65;0.65;;;;;;;;;;5046787;28;20215;-59
2023/07/29 13:27:46;;;;;;;0.80;0.80;;;;;;;;;;5050297;28;20211;-59
2023/07/29 13:30:13;;;;;;;0.80;0.80;;;;;;;;;;5060905;28;20206;-59
2023/07/29 13:32:40;;;;;;;0.90;0.90;;;;;;;;;;5049665;28;20210;-59
2023/07/29 13:35:07;;;;;;;0.70;0.70;;;;;;;;;;5060495;28;20563;-60
2023/07/29 13:37:34;;;;;;;0.95;0.95;;;;;;;;;;5048357;28;20212;-59
2023/07/29 13:40:01;;;;;;;0.77;0.77;;;;;;;;;;5062090;28;20227;-58
2023/07/29 13:42:28;;;;;;;1.10;1.10;;;;;;;;;;5048617;28;20535;-59
2023/07/29 13:44:56;;;;;;;1.10;1.10;;;;;;;;;;5063482;28;20484;-58
2023/07/29 13:47:23;;;;;;;1.17;1.17;;;;;;;;;;5049332;28;20215;-59
2023/07/29 13:49:50;;;;;;;1.55;1.55;;;;;;;;;;5065373;28;20209;-58
2023/07/29 13:52:18;;;;;;;1.00;1.00;;;;;;;;;;5067929;28;20230;-59
2023/07/29 13:54:45;;;;;;;0.95;0.95;;;;;;;;;;5068122;28;20574;-59
2023/07/29 13:57:12;;;;;;;1.00;1.00;;;;;;;;;;5065907;28;20697;-59
2023/07/29 13:59:39;;;;;;;1.13;1.13;;;;;;;;;;5067896;28;20227;-59
2023/07/29 14:02:07;;;;;;;1.40;1.15;;;;;;;;;;5067424;28;20207;-59
2023/07/29 14:04:35;;;;;;;1.10;1.10;;;;;;;;;;5066901;28;20203;-59
2023/07/29 14:07:02;;;;;;;1.08;1.02;;;;;;;;;;5067399;28;20214;-59
2023/07/29 14:09:29;;;;;;;1.27;0.88;;;;;;;;;;5068154;28;20202;-59
2023/07/29 14:11:56;;;;;;;0.75;0.75;;;;;;;;;;5067545;28;20238;-60
2023/07/29 14:14:23;;;;;;;0.98;0.77;;;;;;;;;;5065904;28;20214;-58
2023/07/29 14:16:50;;;;;;;0.80;0.80;;;;;;;;;;5057473;28;20208;-59
2023/07/29 14:19:18;;;;;;;1.30;0.70;;;;;;;;;;5059842;28;20245;-59
2023/07/29 14:21:45;;;;;;;1.40;1.20;;;;;;;;;;5067364;28;20572;-59
2023/07/29 14:24:12;;;;;;;0.90;0.90;;;;;;;;;;5067967;28;20210;-59
2023/07/29 14:26:39;;;;;;;1.00;1.00;;;;;;;;;;5067690;28;20211;-59
2023/07/29 14:29:07;;;;;;;0.90;0.90;;;;;;;;;;5066826;28;20205;-59
2023/07/29 14:31:34;;;;;;;1.77;0.90;;;;;;;;;;5065014;28;20229;-60
2023/07/29 14:34:01;;;;;;;0.90;0.90;;;;;;;;;;5056578;28;20265;-60
2023/07/29 14:36:29;;;;;;;1.67;1.00;;;;;;;;;;5047202;28;20213;-61
2023/07/29 14:38:56;;;;;;;0.80;0.80;;;;;;;;;;5055132;28;20203;-60
2023/07/29 14:41:23;;;;;;;1.10;1.10;;;;;;;;;;5067287;28;20680;-59
2023/07/29 14:43:50;;;;;;;0.82;0.70;;;;;;;;;;5067600;28;20747;-60
2023/07/29 14:46:17;;;;;;;0.75;0.70;;;;;;;;;;5067724;28;20215;-60